createdAt,value
2022-09-26T00:01:32.795Z,12.00
2022-09-26T00:04:04.401Z,12.00
2022-09-26T00:06:31.222Z,12.00
2022-09-26T00:08:59.377Z,12.00
2022-09-26T00:11:30.863Z,12.00
2022-09-26T00:14:01.138Z,12.00
2022-09-26T00:16:28.395Z,12.00
2022-09-26T00:18:57.081Z,12.10
2022-09-26T00:21:25.647Z,12.10
2022-09-26T00:23:54.163Z,12.10
2022-09-26T00:26:23.375Z,12.00
2022-09-26T00:28:50.675Z,12.10
2022-09-26T00:31:29.244Z,12.10
2022-09-26T00:33:57.612Z,12.10
2022-09-26T00:36:37.062Z,12.20
2022-09-26T00:39:07.596Z,12.20
2022-09-26T00:41:35.907Z,12.10
2022-09-26T00:44:03.766Z,12.10
2022-09-26T00:46:46.128Z,12.10
2022-09-26T00:49:29.497Z,12.20
2022-09-26T00:52:20.414Z,12.20
2022-09-26T00:54:50.861Z,12.20
2022-09-26T00:57:30.470Z,12.10
2022-09-26T01:00:04.315Z,12.20
2022-09-26T01:02:31.293Z,12.10
2022-09-26T01:05:00.993Z,12.20
2022-09-26T01:07:31.224Z,12.20
2022-09-26T01:09:59.523Z,12.10
2022-09-26T01:12:26.337Z,12.20
2022-09-26T01:14:54.742Z,12.20
2022-09-26T01:17:24.410Z,12.10
2022-09-26T01:20:07.180Z,12.20
2022-09-26T01:23:02.217Z,12.10
2022-09-26T01:25:32.410Z,12.10
2022-09-26T01:28:41.885Z,12.10
2022-09-26T01:31:29.479Z,12.10
2022-09-26T01:34:32.704Z,12.00
2022-09-26T01:37:18.060Z,12.00
2022-09-26T01:40:13.998Z,12.00
2022-09-26T01:43:02.610Z,12.00
2022-09-26T01:45:53.523Z,12.00
2022-09-26T01:48:31.304Z,12.00
2022-09-26T01:51:09.873Z,12.10
2022-09-26T01:53:42.426Z,12.10
2022-09-26T01:56:19.778Z,12.10
2022-09-26T01:58:55.380Z,12.10
2022-09-26T02:01:25.931Z,12.10
2022-09-26T02:04:00.135Z,12.20
2022-09-26T02:06:44.724Z,12.20
2022-09-26T02:09:21.953Z,12.20
2022-09-26T02:11:51.031Z,12.30
2022-09-26T02:14:25.583Z,12.20
2022-09-26T02:16:58.059Z,12.20
2022-09-26T02:19:30.261Z,12.20
2022-09-26T02:21:58.965Z,12.20
2022-09-26T02:24:26.368Z,12.30
2022-09-26T02:26:53.767Z,12.20
2022-09-26T02:29:21.633Z,12.20
2022-09-26T02:31:57.478Z,12.20
2022-09-26T02:34:26.426Z,12.20
2022-09-26T02:36:56.123Z,12.20
2022-09-26T02:39:24.074Z,12.20
2022-09-26T02:42:09.191Z,12.20
2022-09-26T02:45:12.608Z,12.20
2022-09-26T02:48:12.857Z,12.20
2022-09-26T02:51:05.182Z,12.20
2022-09-26T02:53:49.454Z,12.20
2022-09-26T02:57:00.177Z,12.20
2022-09-26T02:59:57.613Z,12.20
2022-09-26T03:02:50.725Z,12.20
2022-09-26T03:05:23.412Z,12.20
2022-09-26T03:07:59.921Z,12.20
2022-09-26T03:10:28.523Z,12.20
2022-09-26T03:13:02.728Z,12.20
2022-09-26T03:15:33.318Z,12.10
2022-09-26T03:18:04.256Z,12.10
2022-09-26T03:20:31.511Z,12.00
2022-09-26T03:22:58.301Z,12.00
2022-09-26T03:25:27.787Z,12.10
2022-09-26T03:27:55.325Z,12.10
2022-09-26T03:30:24.893Z,12.10
2022-09-26T03:32:51.737Z,12.00
2022-09-26T03:35:18.904Z,12.00
2022-09-26T03:37:45.678Z,12.00
2022-09-26T03:40:13.333Z,12.00
2022-09-26T03:42:40.360Z,12.00
2022-09-26T03:45:13.309Z,12.10
2022-09-26T03:47:41.886Z,12.00
2022-09-26T03:50:09.678Z,12.10
2022-09-26T03:52:36.609Z,12.10
2022-09-26T03:55:04.819Z,12.00
2022-09-26T03:57:31.604Z,12.00
2022-09-26T03:59:58.433Z,12.10
2022-09-26T04:02:25.481Z,12.10
2022-09-26T04:04:53.806Z,12.10
2022-09-26T04:07:22.003Z,12.10
2022-09-26T04:09:48.830Z,12.00
2022-09-26T04:12:15.665Z,12.00
2022-09-26T04:14:43.477Z,12.00
2022-09-26T04:17:10.754Z,12.00
2022-09-26T04:19:37.618Z,12.10
2022-09-26T04:22:04.988Z,12.00
2022-09-26T04:24:32.835Z,12.00
2022-09-26T04:27:00.846Z,12.10
2022-09-26T04:29:29.065Z,12.00
2022-09-26T04:31:55.961Z,12.10
2022-09-26T04:34:27.246Z,12.10
2022-09-26T04:36:56.259Z,12.00
2022-09-26T04:39:25.544Z,12.00
2022-09-26T04:41:53.319Z,12.00
2022-09-26T04:44:20.411Z,12.00
2022-09-26T04:46:48.043Z,12.00
2022-09-26T04:49:14.954Z,12.00
2022-09-26T04:51:42.004Z,12.00
2022-09-26T04:54:10.250Z,12.00
2022-09-26T04:56:37.035Z,12.00
2022-09-26T04:59:03.982Z,11.90
2022-09-26T05:01:30.847Z,12.00
2022-09-26T05:03:58.381Z,12.00
2022-09-26T05:06:25.429Z,11.90
2022-09-26T05:08:52.263Z,12.00
2022-09-26T05:11:21.453Z,11.90
2022-09-26T05:13:53.775Z,11.90
2022-09-26T05:16:22.128Z,11.90
2022-09-26T05:18:52.494Z,11.90
2022-09-26T05:21:19.839Z,11.90
2022-09-26T05:24:05.635Z,11.90
2022-09-26T05:26:46.987Z,11.80
2022-09-26T05:29:14.270Z,11.80
2022-09-26T05:31:41.356Z,11.90
2022-09-26T05:34:15.455Z,11.80
2022-09-26T05:36:45.463Z,11.90
2022-09-26T05:39:31.231Z,11.80
2022-09-26T05:41:59.551Z,11.80
2022-09-26T05:44:27.519Z,11.90
2022-09-26T05:46:57.194Z,11.90
2022-09-26T05:49:24.222Z,11.90
2022-09-26T05:51:53.161Z,11.90
2022-09-26T05:54:21.136Z,11.90
2022-09-26T05:56:48.341Z,12.00
2022-09-26T05:59:15.423Z,11.90
2022-09-26T06:01:42.740Z,11.90
2022-09-26T06:04:11.300Z,11.90
2022-09-26T06:06:38.425Z,11.90
2022-09-26T06:09:07.303Z,11.90
2022-09-26T06:11:34.273Z,11.90
2022-09-26T06:14:01.259Z,11.90
2022-09-26T06:16:29.069Z,11.90
2022-09-26T06:18:56.158Z,12.00
2022-09-26T06:21:23.692Z,12.00
2022-09-26T06:23:50.599Z,12.00
2022-09-26T06:26:25.780Z,12.00
2022-09-26T06:29:00.498Z,12.10
2022-09-26T06:31:28.506Z,12.00
2022-09-26T06:33:55.751Z,12.00
2022-09-26T06:36:24.036Z,12.00
2022-09-26T06:38:51.605Z,12.00
2022-09-26T06:41:19.743Z,11.90
2022-09-26T06:43:47.520Z,12.00
2022-09-26T06:46:16.321Z,12.00
2022-09-26T06:48:43.676Z,12.00
2022-09-26T06:51:13.751Z,12.00
2022-09-26T06:53:41.259Z,12.10
2022-09-26T06:56:08.127Z,12.10
2022-09-26T06:58:35.059Z,12.10
2022-09-26T07:01:03.030Z,12.20
2022-09-26T07:03:30.037Z,12.20
2022-09-26T07:05:58.213Z,12.10
2022-09-26T07:08:43.693Z,12.10
2022-09-26T07:11:35.244Z,12.10
2022-09-26T07:14:02.034Z,12.20
2022-09-26T07:16:30.848Z,12.10
2022-09-26T07:18:58.178Z,12.20
2022-09-26T07:21:25.617Z,12.20
2022-09-26T07:23:58.662Z,12.30
2022-09-26T07:26:25.479Z,12.30
2022-09-26T07:28:54.886Z,12.40
2022-09-26T07:31:26.215Z,12.50
2022-09-26T07:33:53.993Z,12.50
2022-09-26T07:36:21.077Z,12.50
2022-09-26T07:38:49.407Z,12.60
2022-09-26T07:41:17.725Z,12.60
2022-09-26T07:46:50.156Z,12.70
2022-09-26T07:49:35.809Z,12.70
2022-09-26T07:52:02.739Z,12.60
2022-09-26T07:54:29.557Z,12.70
2022-09-26T07:56:56.323Z,12.60
2022-09-26T07:59:23.260Z,12.60
2022-09-26T08:01:53.193Z,12.50
2022-09-26T08:04:20.173Z,12.50
2022-09-26T08:06:46.978Z,12.60
2022-09-26T08:09:14.990Z,12.70
2022-09-26T08:11:42.022Z,12.80
2022-09-26T08:14:09.037Z,13.00
2022-09-26T08:16:39.614Z,13.00
2022-09-26T08:19:07.833Z,13.20
2022-09-26T08:21:35.456Z,13.20
2022-09-26T08:24:02.539Z,13.10
2022-09-26T08:26:29.617Z,13.00
2022-09-26T08:28:56.439Z,13.00
2022-09-26T08:31:23.664Z,13.00
2022-09-26T08:33:50.465Z,13.00
2022-09-26T08:36:17.617Z,13.10
2022-09-26T08:38:44.590Z,13.10
2022-09-26T08:41:37.587Z,13.20
2022-09-26T08:44:26.490Z,13.30
2022-09-26T08:47:06.522Z,13.30
2022-09-26T08:50:07.454Z,13.50
2022-09-26T08:53:06.653Z,13.50
2022-09-26T08:55:40.733Z,13.50
2022-09-26T08:58:29.221Z,13.50
2022-09-26T09:01:02.781Z,13.40
2022-09-26T09:03:52.195Z,13.40
2022-09-26T09:06:19.584Z,13.50
2022-09-26T09:08:57.136Z,13.60
2022-09-26T09:12:15.245Z,13.80
2022-09-26T09:15:20.476Z,13.90
2022-09-26T09:18:13.448Z,13.80
2022-09-26T09:21:27.346Z,13.70
2022-09-26T09:24:15.704Z,13.70
2022-09-26T09:30:40.782Z,13.70
2022-09-26T09:33:17.382Z,13.80
2022-09-26T09:35:53.031Z,13.90
2022-09-26T09:38:26.052Z,14.20
2022-09-26T09:41:23.387Z,14.30
2022-09-26T09:43:59.951Z,14.40
2022-09-26T09:46:38.326Z,14.30
2022-09-26T09:49:22.253Z,14.20
2022-09-26T09:52:20.138Z,14.10
2022-09-26T09:54:59.547Z,14.00
2022-09-26T09:57:54.062Z,13.90
2022-09-26T10:00:24.011Z,14.00
2022-09-26T10:03:01.110Z,14.20
2022-09-26T10:05:45.637Z,14.40
2022-09-26T10:08:14.291Z,14.50
2022-09-26T10:11:19.549Z,14.40
2022-09-26T10:13:53.207Z,14.30
2022-09-26T10:16:21.003Z,14.20
2022-09-26T10:19:06.093Z,14.10
2022-09-26T10:21:39.910Z,14.20
2022-09-26T10:24:22.322Z,14.20
2022-09-26T10:26:50.161Z,14.20
2022-09-26T10:29:22.407Z,14.40
2022-09-26T10:31:56.773Z,14.70
2022-09-26T10:34:33.948Z,14.80
2022-09-26T10:37:25.590Z,14.90
2022-09-26T10:40:13.981Z,14.90
2022-09-26T10:42:43.193Z,15.10
2022-09-26T10:45:29.378Z,15.10
2022-09-26T10:47:57.347Z,15.10
2022-09-26T10:50:27.810Z,15.10
2022-09-26T10:53:08.173Z,15.10
2022-09-26T10:55:44.213Z,15.00
2022-09-26T10:58:18.740Z,14.90
2022-09-26T11:00:51.545Z,14.90
2022-09-26T11:03:26.140Z,14.90
2022-09-26T11:05:57.713Z,14.90
2022-09-26T11:08:34.747Z,14.80
2022-09-26T11:11:05.347Z,14.90
2022-09-26T11:14:10.900Z,14.80
2022-09-26T11:16:43.534Z,14.70
2022-09-26T11:19:30.949Z,14.60
2022-09-26T11:22:30.204Z,14.50
2022-09-26T11:33:45.912Z,15.00
2022-09-26T11:36:39.728Z,15.50
2022-09-26T11:39:26.413Z,15.80
2022-09-26T11:42:31.407Z,16.10
2022-09-26T11:45:05.072Z,16.20
2022-09-26T11:47:59.571Z,16.30
2022-09-26T11:51:09.366Z,16.50
2022-09-26T11:53:58.310Z,16.60
2022-09-26T11:57:17.885Z,16.60
2022-09-26T12:00:24.158Z,16.80
2022-09-26T12:03:43.481Z,17.00
2022-09-26T12:07:02.004Z,17.30
2022-09-26T12:10:08.431Z,17.30
2022-09-26T12:13:19.093Z,17.20
2022-09-26T12:16:24.515Z,17.20
2022-09-26T12:19:38.420Z,17.10
2022-09-26T12:22:36.294Z,17.00
2022-09-26T12:25:10.989Z,17.00
2022-09-26T12:27:59.000Z,17.20
2022-09-26T12:30:33.319Z,17.40
2022-09-26T12:33:06.209Z,17.40
2022-09-26T12:35:49.721Z,17.30
2022-09-26T12:38:47.508Z,17.30
2022-09-26T12:41:29.309Z,17.20
2022-09-26T12:44:51.614Z,17.00
2022-09-26T12:47:46.554Z,17.10
2022-09-26T12:50:16.486Z,17.10
2022-09-26T12:52:55.300Z,16.90
2022-09-26T12:55:38.549Z,16.90
2022-09-26T12:58:28.277Z,16.90
2022-09-26T13:01:15.065Z,16.80
2022-09-26T13:04:25.108Z,16.80
2022-09-26T13:07:28.615Z,16.90
2022-09-26T13:10:09.955Z,16.90
2022-09-26T13:12:55.845Z,16.80
2022-09-26T13:15:34.878Z,16.50
2022-09-26T13:18:12.883Z,16.40
2022-09-26T13:20:43.687Z,16.30
2022-09-26T13:23:29.662Z,16.30
2022-09-26T13:26:20.074Z,16.40
2022-09-26T13:29:17.055Z,16.50
2022-09-26T13:32:23.683Z,16.50
2022-09-26T13:35:04.065Z,16.50
2022-09-26T13:38:06.204Z,16.40
2022-09-26T13:41:01.912Z,16.30
2022-09-26T13:43:49.825Z,16.30
2022-09-26T13:46:22.407Z,16.30
2022-09-26T13:49:16.070Z,16.20
2022-09-26T13:52:32.290Z,16.20
2022-09-26T13:55:13.686Z,16.10
2022-09-26T13:58:06.836Z,16.00
2022-09-26T14:00:48.951Z,15.90
2022-09-26T14:03:16.635Z,15.90
2022-09-26T14:05:50.779Z,15.80
2022-09-26T14:08:55.143Z,15.80
2022-09-26T14:11:33.713Z,15.70
2022-09-26T14:14:19.049Z,15.70
2022-09-26T14:16:47.467Z,15.70
2022-09-26T14:19:20.564Z,15.70
2022-09-26T14:22:05.500Z,15.70
2022-09-26T14:24:43.410Z,15.70
2022-09-26T14:27:10.110Z,15.70
2022-09-26T14:29:50.334Z,15.70
2022-09-26T14:32:23.368Z,15.70
2022-09-26T14:34:53.267Z,15.70
2022-09-26T14:37:25.435Z,15.70
2022-09-26T14:39:59.927Z,15.80
2022-09-26T14:42:36.892Z,15.90
2022-09-26T14:45:16.450Z,15.90
2022-09-26T14:47:54.118Z,15.70
2022-09-26T14:51:06.360Z,15.60
2022-09-26T14:53:47.928Z,15.60
2022-09-26T14:56:38.404Z,15.60
2022-09-26T14:59:40.104Z,15.70
2022-09-26T15:02:28.759Z,15.80
2022-09-26T15:05:28.091Z,15.80
2022-09-26T15:07:56.874Z,15.70
2022-09-26T15:10:35.479Z,15.60
2022-09-26T15:13:17.263Z,15.60
2022-09-26T15:15:56.357Z,15.60
2022-09-26T15:18:26.390Z,15.70
2022-09-26T15:21:33.579Z,15.80
2022-09-26T15:24:05.105Z,15.80
2022-09-26T15:26:37.029Z,15.90
2022-09-26T15:29:07.005Z,15.80
2022-09-26T15:31:47.485Z,15.80
2022-09-26T15:34:39.057Z,15.70
2022-09-26T15:37:19.086Z,15.70
2022-09-26T15:39:46.001Z,15.60
2022-09-26T15:42:38.790Z,15.50
2022-09-26T15:45:50.521Z,15.40
2022-09-26T15:48:20.402Z,15.30
2022-09-26T15:50:47.527Z,15.20
2022-09-26T15:53:39.536Z,15.20
2022-09-26T15:56:10.695Z,15.10
2022-09-26T15:58:46.487Z,15.00
2022-09-26T16:01:21.964Z,15.00
2022-09-26T16:04:03.342Z,15.00
2022-09-26T16:06:56.318Z,15.00
2022-09-26T16:09:38.618Z,14.90
2022-09-26T16:12:16.902Z,14.90
2022-09-26T16:15:03.570Z,14.80
2022-09-26T16:17:32.417Z,14.80
2022-09-26T16:20:24.544Z,14.70
2022-09-26T16:23:05.363Z,14.70
2022-09-26T16:25:33.355Z,14.80
2022-09-26T16:28:10.103Z,14.70
2022-09-26T16:31:01.105Z,14.70
2022-09-26T16:33:33.012Z,14.70
2022-09-26T16:36:14.998Z,14.60
2022-09-26T16:38:41.951Z,14.60
2022-09-26T16:41:56.195Z,14.50
2022-09-26T16:44:34.419Z,14.50
2022-09-26T16:47:05.468Z,14.50
2022-09-26T16:49:48.306Z,14.50
2022-09-26T16:52:34.290Z,14.30
2022-09-26T16:55:06.123Z,14.20
2022-09-26T16:57:37.943Z,14.20
2022-09-26T17:00:40.947Z,14.10
2022-09-26T17:03:30.651Z,14.00
2022-09-26T17:05:59.525Z,14.00
2022-09-26T17:08:27.889Z,13.90
2022-09-26T17:11:00.270Z,13.80
2022-09-26T17:13:32.852Z,13.70
2022-09-26T17:16:03.444Z,13.70
2022-09-26T17:18:33.001Z,13.60
2022-09-26T17:21:01.926Z,13.60
2022-09-26T17:23:45.817Z,13.60
2022-09-26T17:26:22.195Z,13.50
2022-09-26T17:28:50.242Z,13.50
2022-09-26T17:31:21.883Z,13.50
2022-09-26T17:33:52.653Z,13.50
2022-09-26T17:36:26.376Z,13.40
2022-09-26T17:38:56.739Z,13.40
2022-09-26T17:41:25.278Z,13.30
2022-09-26T17:43:59.338Z,13.20
2022-09-26T17:46:27.476Z,13.20
2022-09-26T17:48:56.142Z,13.10
2022-09-26T17:51:23.978Z,13.10
2022-09-26T17:53:52.391Z,13.10
2022-09-26T17:56:20.726Z,13.00
2022-09-26T17:58:49.084Z,13.00
2022-09-26T18:01:30.369Z,12.90
2022-09-26T18:04:02.447Z,12.90
2022-09-26T18:06:32.741Z,12.90
2022-09-26T18:09:07.372Z,12.90
2022-09-26T18:11:36.289Z,12.90
2022-09-26T18:14:05.729Z,12.90
2022-09-26T18:16:32.660Z,12.80
2022-09-26T18:19:04.694Z,12.80
2022-09-26T18:21:35.031Z,12.80
2022-09-26T18:24:06.651Z,12.80
2022-09-26T18:26:47.004Z,12.70
2022-09-26T18:29:31.357Z,12.70
2022-09-26T18:31:59.820Z,12.70
2022-09-26T18:34:27.001Z,12.70
2022-09-26T18:36:57.141Z,12.60
2022-09-26T18:39:25.105Z,12.50
2022-09-26T18:42:03.635Z,12.50
2022-09-26T18:44:35.116Z,12.30
2022-09-26T18:47:14.296Z,12.20
2022-09-26T18:49:46.504Z,12.10
2022-09-26T18:52:18.384Z,11.90
2022-09-26T18:55:06.897Z,11.80
2022-09-26T18:57:53.343Z,11.80
2022-09-26T19:00:20.241Z,11.90
2022-09-26T19:02:50.142Z,11.90
2022-09-26T19:05:17.724Z,11.90
2022-09-26T19:07:45.009Z,11.90
2022-09-26T19:10:20.109Z,11.80
2022-09-26T19:12:47.036Z,11.90
2022-09-26T19:15:16.005Z,11.90
2022-09-26T19:17:43.460Z,11.90
2022-09-26T19:20:10.494Z,11.90
2022-09-26T19:22:37.489Z,11.90
2022-09-26T19:25:04.809Z,11.80
2022-09-26T19:27:42.389Z,11.80
2022-09-26T19:30:22.369Z,11.80
2022-09-26T19:32:53.085Z,11.70
2022-09-26T19:35:31.717Z,11.70
2022-09-26T19:37:59.964Z,11.70
2022-09-26T19:40:29.095Z,11.70
2022-09-26T19:42:57.258Z,11.70
2022-09-26T19:45:25.927Z,11.80
2022-09-26T19:47:55.730Z,11.80
2022-09-26T19:50:28.005Z,11.70
2022-09-26T19:52:58.510Z,11.80
2022-09-26T19:55:29.699Z,11.80
2022-09-26T19:58:20.448Z,11.80
2022-09-26T20:01:03.446Z,11.80
2022-09-26T20:03:40.170Z,11.90
2022-09-26T20:06:27.350Z,12.00
2022-09-26T20:09:02.120Z,12.00
2022-09-26T20:11:29.179Z,12.10
2022-09-26T20:14:14.456Z,12.10
2022-09-26T20:16:42.632Z,12.10
2022-09-26T20:19:17.029Z,12.00
2022-09-26T20:21:44.771Z,12.00
2022-09-26T20:24:19.732Z,12.00
2022-09-26T20:26:48.074Z,12.00
2022-09-26T20:29:16.490Z,11.90
2022-09-26T20:31:43.662Z,11.90
2022-09-26T20:34:12.199Z,11.90
2022-09-26T20:36:51.437Z,11.90
2022-09-26T20:39:26.688Z,11.90
2022-09-26T20:41:53.772Z,11.90
2022-09-26T20:44:28.758Z,11.90
2022-09-26T20:47:01.492Z,12.00
2022-09-26T20:49:46.325Z,11.90
2022-09-26T20:52:21.848Z,11.90
2022-09-26T20:54:49.319Z,11.90
2022-09-26T20:57:17.437Z,11.90
2022-09-26T20:59:44.293Z,11.80
2022-09-26T21:02:23.523Z,11.80
2022-09-26T21:04:51.713Z,11.80
2022-09-26T21:07:19.109Z,11.80
2022-09-26T21:09:46.037Z,11.80
2022-09-26T21:12:14.883Z,11.90
2022-09-26T21:14:42.477Z,12.00
2022-09-26T21:17:29.399Z,11.90
2022-09-26T21:19:56.445Z,11.90
2022-09-26T21:22:27.126Z,11.90
2022-09-26T21:24:54.247Z,12.00
2022-09-26T21:27:21.066Z,11.90
2022-09-26T21:29:50.164Z,11.90
2022-09-26T21:32:20.595Z,11.90
2022-09-26T21:35:13.943Z,11.90
2022-09-26T21:37:43.589Z,11.90
2022-09-26T21:40:10.898Z,11.90
2022-09-26T21:42:38.138Z,11.90
2022-09-26T21:45:09.840Z,11.90
2022-09-26T21:47:37.566Z,11.90
2022-09-26T21:50:07.468Z,11.90
2022-09-26T21:52:42.843Z,11.90
2022-09-26T21:55:29.619Z,11.90
2022-09-26T21:58:03.359Z,11.90
2022-09-26T22:00:30.264Z,11.90
2022-09-26T22:03:00.838Z,11.90
2022-09-26T22:05:27.815Z,11.90
2022-09-26T22:07:55.888Z,11.90
2022-09-26T22:10:23.060Z,11.90
2022-09-26T22:12:52.354Z,11.90
2022-09-26T22:15:20.300Z,11.90
2022-09-26T22:17:47.623Z,11.90
2022-09-26T22:20:14.959Z,11.90
2022-09-26T22:22:42.144Z,11.90
2022-09-26T22:25:09.767Z,12.00
2022-09-26T22:27:37.207Z,12.00
2022-09-26T22:30:05.836Z,12.00
2022-09-26T22:32:33.397Z,12.00
2022-09-26T22:35:00.487Z,12.00
2022-09-26T22:37:28.144Z,11.90
2022-09-26T22:39:55.212Z,12.00
2022-09-26T22:42:22.429Z,12.00
2022-09-26T22:44:49.603Z,12.00
2022-09-26T22:47:16.642Z,12.00
2022-09-26T22:49:43.781Z,12.00
2022-09-26T22:52:11.058Z,12.00
2022-09-26T22:54:38.162Z,11.90
2022-09-26T22:57:05.799Z,12.00
2022-09-26T22:59:32.887Z,12.00
2022-09-26T23:02:00.126Z,12.00
2022-09-26T23:04:47.016Z,12.00
2022-09-26T23:07:17.120Z,12.00
2022-09-26T23:09:44.682Z,12.00
2022-09-26T23:12:12.968Z,12.00
2022-09-26T23:14:40.482Z,12.00
2022-09-26T23:17:07.782Z,12.00
2022-09-26T23:19:34.905Z,11.90
2022-09-26T23:22:02.084Z,11.90
2022-09-26T23:24:29.120Z,11.90
2022-09-26T23:27:00.143Z,11.90
2022-09-26T23:29:27.434Z,11.80
2022-09-26T23:31:55.010Z,11.80
2022-09-26T23:34:22.361Z,11.80
2022-09-26T23:36:49.326Z,11.80
2022-09-26T23:39:17.693Z,11.80
2022-09-26T23:41:44.623Z,11.90
2022-09-26T23:44:11.473Z,11.90
2022-09-26T23:46:38.931Z,11.90
2022-09-26T23:49:06.096Z,11.90
2022-09-26T23:51:33.096Z,11.90
2022-09-26T23:54:00.085Z,11.90
2022-09-26T23:56:27.075Z,11.90
2022-09-26T23:58:57.228Z,11.90
